createdAt,value
2022-12-26T00:00:02.011Z,81.00
2022-12-26T00:02:28.707Z,80.41
2022-12-26T00:04:55.652Z,80.46
2022-12-26T00:07:22.344Z,80.68
2022-12-26T00:09:48.892Z,81.23
2022-12-26T00:12:15.457Z,80.82
2022-12-26T00:14:42.059Z,80.67
2022-12-26T00:17:08.683Z,81.61
2022-12-26T00:19:35.318Z,81.16
2022-12-26T00:22:01.879Z,80.17
2022-12-26T00:24:28.471Z,79.70
2022-12-26T00:26:55.192Z,79.63
2022-12-26T00:29:22.914Z,79.55
2022-12-26T00:31:49.909Z,80.41
2022-12-26T00:34:16.633Z,79.59
2022-12-26T00:36:43.347Z,79.48
2022-12-26T00:39:09.992Z,80.17
2022-12-26T00:41:37.266Z,80.19
2022-12-26T00:44:04.111Z,80.41
2022-12-26T00:46:30.712Z,80.20
2022-12-26T00:49:07.223Z,80.51
2022-12-26T00:51:40.920Z,80.24
2022-12-26T00:54:07.546Z,80.48
2022-12-26T00:56:34.147Z,80.29
2022-12-26T00:59:00.837Z,80.40
2022-12-26T01:01:30.879Z,80.14
2022-12-26T01:03:58.279Z,80.69
2022-12-26T01:06:24.924Z,80.48
2022-12-26T01:08:52.635Z,80.49
2022-12-26T01:11:38.425Z,80.66
2022-12-26T01:14:05.708Z,81.18
2022-12-26T01:16:32.560Z,80.79
2022-12-26T01:19:00.957Z,80.53
2022-12-26T01:21:28.111Z,80.70
2022-12-26T01:23:55.372Z,80.47
2022-12-26T01:26:21.930Z,80.78
2022-12-26T01:28:51.011Z,80.90
2022-12-26T01:31:18.359Z,81.09
2022-12-26T01:33:45.352Z,81.07
2022-12-26T01:36:12.348Z,81.30
2022-12-26T01:38:38.901Z,81.60
2022-12-26T01:41:17.699Z,81.48
2022-12-26T01:43:57.713Z,81.80
2022-12-26T01:46:27.460Z,81.86
2022-12-26T01:48:56.328Z,81.59
2022-12-26T01:51:26.127Z,81.38
2022-12-26T01:53:55.907Z,81.06
2022-12-26T01:56:45.198Z,80.51
2022-12-26T01:59:17.769Z,81.32
2022-12-26T02:01:47.519Z,80.76
2022-12-26T02:04:39.436Z,80.95
2022-12-26T02:07:06.477Z,80.94
2022-12-26T02:09:33.765Z,81.30
2022-12-26T02:12:34.490Z,80.99
2022-12-26T02:14:54.140Z,80.43
2022-12-26T02:17:21.108Z,80.86
2022-12-26T02:20:05.431Z,81.60
2022-12-26T02:23:04.511Z,81.46
2022-12-26T02:25:55.757Z,81.53
2022-12-26T02:28:47.240Z,81.54
2022-12-26T02:31:27.538Z,81.48
2022-12-26T02:34:08.765Z,81.35
2022-12-26T02:36:56.466Z,81.47
2022-12-26T02:39:43.361Z,81.33
2022-12-26T02:43:01.716Z,81.64
2022-12-26T02:45:59.399Z,81.08
2022-12-26T02:48:45.188Z,81.29
2022-12-26T02:51:49.358Z,81.64
2022-12-26T02:54:54.122Z,82.34
2022-12-26T02:57:44.029Z,82.35
2022-12-26T03:00:36.085Z,82.37
2022-12-26T03:03:24.218Z,82.53
2022-12-26T03:06:21.176Z,83.38
2022-12-26T03:09:09.118Z,83.19
2022-12-26T03:12:01.323Z,83.30
2022-12-26T03:14:35.930Z,83.11
2022-12-26T03:17:19.590Z,82.75
2022-12-26T03:19:59.838Z,83.17
2022-12-26T03:22:35.731Z,82.81
2022-12-26T03:25:25.545Z,83.10
2022-12-26T03:27:53.746Z,82.81
2022-12-26T03:30:39.412Z,82.12
2022-12-26T03:33:26.800Z,82.70
2022-12-26T03:35:53.597Z,82.96
2022-12-26T03:38:27.213Z,82.35
2022-12-26T03:41:30.240Z,83.18
2022-12-26T03:44:53.358Z,82.54
2022-12-26T03:47:48.087Z,82.75
2022-12-26T03:50:47.662Z,83.94
2022-12-26T03:53:38.492Z,83.53
2022-12-26T03:56:32.858Z,82.80
2022-12-26T03:59:29.221Z,82.95
2022-12-26T04:02:19.904Z,83.10
2022-12-26T04:05:04.992Z,82.96
2022-12-26T04:07:55.888Z,83.50
2022-12-26T04:10:49.642Z,83.71
2022-12-26T04:14:22.440Z,83.43
2022-12-26T04:17:31.031Z,82.81
2022-12-26T04:20:00.418Z,82.75
2022-12-26T04:23:10.389Z,83.01
2022-12-26T04:26:21.444Z,83.55
2022-12-26T04:29:06.812Z,82.97
2022-12-26T04:32:02.158Z,83.01
2022-12-26T04:34:58.736Z,83.00
2022-12-26T04:37:47.327Z,82.59
2022-12-26T04:40:41.488Z,82.59
2022-12-26T04:43:47.484Z,82.61
2022-12-26T04:46:17.285Z,82.25
2022-12-26T04:49:05.426Z,82.55
2022-12-26T04:51:33.250Z,82.43
2022-12-26T04:53:59.999Z,83.07
2022-12-26T04:56:26.566Z,83.41
2022-12-26T04:58:53.135Z,82.61
2022-12-26T05:01:38.462Z,82.63
2022-12-26T05:04:23.853Z,82.34
2022-12-26T05:07:09.330Z,82.40
2022-12-26T05:09:36.007Z,82.67
2022-12-26T05:12:05.031Z,82.92
2022-12-26T05:14:32.349Z,83.19
2022-12-26T05:17:18.039Z,83.08
2022-12-26T05:20:03.717Z,82.91
2022-12-26T05:22:51.510Z,82.85
2022-12-26T05:25:42.678Z,82.86
2022-12-26T05:28:32.660Z,82.84
2022-12-26T05:30:59.998Z,82.57
2022-12-26T05:33:45.152Z,82.42
2022-12-26T05:36:12.761Z,81.89
2022-12-26T05:38:40.178Z,82.27
2022-12-26T05:41:06.938Z,82.17
2022-12-26T05:43:33.505Z,81.96
2022-12-26T05:46:00.085Z,81.99
2022-12-26T05:48:26.697Z,81.98
2022-12-26T05:50:53.244Z,82.46
2022-12-26T05:53:19.823Z,82.28
2022-12-26T05:55:46.377Z,81.76
2022-12-26T05:58:13.218Z,82.57
2022-12-26T06:00:39.796Z,82.17
2022-12-26T06:03:06.471Z,82.17
2022-12-26T06:05:33.092Z,82.46
2022-12-26T06:07:59.743Z,82.44
2022-12-26T06:10:26.985Z,82.02
2022-12-26T06:12:53.544Z,81.90
2022-12-26T06:15:20.148Z,82.00
2022-12-26T06:17:46.773Z,81.87
2022-12-26T06:20:13.364Z,81.82
2022-12-26T06:22:42.823Z,81.51
2022-12-26T06:25:09.737Z,81.28
2022-12-26T06:27:36.403Z,81.28
2022-12-26T06:30:03.682Z,81.19
2022-12-26T06:32:30.637Z,80.85
2022-12-26T06:34:57.209Z,81.54
2022-12-26T06:37:23.761Z,81.33
2022-12-26T06:39:50.343Z,81.24
2022-12-26T06:42:17.238Z,81.04
2022-12-26T06:44:43.795Z,81.11
2022-12-26T06:47:10.386Z,81.13
2022-12-26T06:49:37.285Z,81.52
2022-12-26T06:52:04.000Z,81.18
2022-12-26T06:54:30.554Z,81.07
2022-12-26T06:56:57.111Z,81.27
2022-12-26T06:59:23.752Z,81.11
2022-12-26T07:01:50.518Z,81.25
2022-12-26T07:04:17.390Z,81.75
2022-12-26T07:06:44.171Z,81.67
2022-12-26T07:09:14.428Z,81.72
2022-12-26T07:11:44.345Z,81.93
2022-12-26T07:14:11.281Z,82.02
2022-12-26T07:16:39.615Z,82.57
2022-12-26T07:19:06.984Z,82.79
2022-12-26T07:21:40.194Z,82.86
2022-12-26T07:24:08.973Z,82.80
2022-12-26T07:26:35.662Z,82.86
2022-12-26T07:29:02.219Z,82.33
2022-12-26T07:31:28.909Z,82.43
2022-12-26T07:33:56.687Z,82.38
2022-12-26T07:36:25.109Z,82.43
2022-12-26T07:38:52.086Z,82.53
2022-12-26T07:41:38.403Z,82.77
2022-12-26T07:44:06.065Z,82.79
2022-12-26T07:46:33.346Z,82.74
2022-12-26T07:49:00.044Z,82.52
2022-12-26T07:51:27.315Z,82.72
2022-12-26T07:53:53.940Z,83.07
2022-12-26T07:56:20.598Z,83.09
2022-12-26T07:58:51.323Z,83.24
2022-12-26T08:01:19.090Z,82.91
2022-12-26T08:03:48.698Z,83.21
2022-12-26T08:06:15.775Z,82.92
2022-12-26T08:08:50.213Z,82.88
2022-12-26T08:11:21.341Z,82.87
2022-12-26T08:13:49.400Z,82.72
2022-12-26T08:16:16.281Z,82.14
2022-12-26T08:18:43.870Z,82.24
2022-12-26T08:21:11.578Z,82.64
2022-12-26T08:23:38.810Z,82.72
2022-12-26T08:26:08.156Z,82.46
2022-12-26T08:28:34.994Z,82.88
2022-12-26T08:31:07.103Z,82.64
2022-12-26T08:33:33.787Z,82.67
2022-12-26T08:36:05.426Z,82.62
2022-12-26T08:38:34.021Z,82.35
2022-12-26T08:41:01.617Z,82.19
2022-12-26T08:46:16.888Z,82.84
2022-12-26T08:48:44.193Z,82.43
2022-12-26T08:51:22.420Z,82.85
2022-12-26T08:53:52.331Z,82.54
2022-12-26T08:56:21.253Z,82.67
2022-12-26T08:58:48.017Z,82.22
2022-12-26T09:01:26.599Z,81.96
2022-12-26T09:03:58.335Z,82.25
2022-12-26T09:06:26.168Z,82.04
2022-12-26T09:08:52.912Z,82.03
2022-12-26T09:11:22.705Z,81.98
2022-12-26T09:13:50.290Z,82.02
2022-12-26T09:16:50.568Z,81.51
2022-12-26T09:19:18.594Z,82.10
2022-12-26T09:21:46.485Z,82.26
2022-12-26T09:24:16.019Z,82.05
2022-12-26T09:26:43.759Z,82.33
2022-12-26T09:29:11.802Z,82.14
2022-12-26T09:31:38.449Z,81.41
2022-12-26T09:34:06.440Z,81.62
2022-12-26T09:36:37.814Z,82.02
2022-12-26T09:39:04.804Z,81.76
2022-12-26T09:41:49.992Z,81.33
2022-12-26T09:44:38.446Z,81.59
2022-12-26T09:47:32.099Z,81.62
2022-12-26T09:50:01.758Z,81.81
2022-12-26T09:52:39.859Z,81.84
2022-12-26T09:55:45.021Z,81.85
2022-12-26T09:58:31.344Z,82.51
2022-12-26T10:01:13.326Z,82.10
2022-12-26T10:03:48.914Z,82.34
2022-12-26T10:06:24.042Z,82.52
2022-12-26T10:09:23.246Z,82.31
2022-12-26T10:12:05.095Z,82.60
2022-12-26T10:14:54.921Z,82.57
2022-12-26T10:17:30.548Z,82.43
2022-12-26T10:20:17.308Z,82.31
2022-12-26T10:22:49.942Z,82.36
2022-12-26T10:25:21.754Z,82.03
2022-12-26T10:27:50.835Z,82.48
2022-12-26T10:30:30.440Z,82.16
2022-12-26T10:33:01.161Z,82.72
2022-12-26T10:35:33.918Z,82.13
2022-12-26T10:38:18.719Z,82.43
2022-12-26T10:40:50.367Z,82.06
2022-12-26T10:43:32.178Z,82.74
2022-12-26T10:46:20.425Z,83.03
2022-12-26T10:48:48.275Z,82.87
2022-12-26T10:51:16.288Z,82.89
2022-12-26T10:53:52.051Z,82.41
2022-12-26T10:56:20.067Z,83.05
2022-12-26T10:58:58.534Z,82.95
2022-12-26T11:01:47.278Z,83.01
2022-12-26T11:05:11.241Z,82.92
2022-12-26T11:07:12.033Z,83.23
2022-12-26T11:09:42.601Z,83.45
2022-12-26T11:12:59.079Z,84.15
2022-12-26T11:15:41.334Z,84.26
2022-12-26T11:18:47.545Z,84.82
2022-12-26T11:21:30.660Z,84.71
2022-12-26T11:24:09.345Z,84.87
2022-12-26T11:26:37.044Z,84.24
2022-12-26T11:32:19.526Z,84.75
2022-12-26T11:34:49.438Z,83.60
2022-12-26T11:37:26.753Z,84.09
2022-12-26T11:39:53.836Z,83.79
2022-12-26T11:42:23.362Z,83.56
2022-12-26T11:44:52.719Z,83.12
2022-12-26T11:47:26.343Z,83.27
2022-12-26T11:50:03.485Z,83.70
2022-12-26T11:52:56.477Z,82.77
2022-12-26T11:55:26.428Z,83.26
2022-12-26T11:58:15.211Z,83.65
2022-12-26T12:01:01.626Z,83.12
2022-12-26T12:03:34.431Z,82.79
2022-12-26T12:06:34.708Z,82.86
2022-12-26T12:09:14.184Z,82.65
2022-12-26T12:12:14.029Z,82.30
2022-12-26T12:15:00.094Z,81.93
2022-12-26T12:17:35.721Z,82.29
2022-12-26T12:20:32.053Z,81.98
2022-12-26T12:23:26.630Z,81.96
2022-12-26T12:26:22.439Z,82.06
2022-12-26T12:29:12.186Z,81.63
2022-12-26T12:31:51.543Z,81.40
2022-12-26T12:34:29.978Z,81.74
2022-12-26T12:37:37.863Z,81.39
2022-12-26T12:40:07.028Z,81.79
2022-12-26T12:42:39.641Z,81.67
2022-12-26T12:45:33.549Z,81.23
2022-12-26T12:48:06.066Z,81.03
2022-12-26T12:51:04.648Z,81.04
2022-12-26T12:53:37.202Z,81.24
2022-12-26T12:56:42.015Z,80.76
2022-12-26T12:59:24.352Z,80.90
2022-12-26T13:01:57.476Z,80.07
2022-12-26T13:04:31.017Z,80.79
2022-12-26T13:07:03.125Z,80.33
2022-12-26T13:09:37.729Z,80.49
2022-12-26T13:12:07.626Z,80.42
2022-12-26T13:14:45.148Z,79.91
2022-12-26T13:17:20.300Z,79.66
2022-12-26T13:20:02.553Z,80.51
2022-12-26T13:23:02.628Z,80.47
2022-12-26T13:25:35.627Z,80.53
2022-12-26T13:28:09.946Z,80.65
2022-12-26T13:30:38.057Z,80.56
2022-12-26T13:33:05.708Z,80.52
2022-12-26T13:35:55.078Z,80.40
2022-12-26T13:38:23.421Z,79.98
2022-12-26T13:41:22.722Z,79.61
2022-12-26T13:44:17.971Z,79.89
2022-12-26T13:46:47.474Z,79.46
2022-12-26T13:49:38.942Z,79.50
2022-12-26T13:52:11.533Z,79.37
2022-12-26T13:55:06.840Z,79.46
2022-12-26T13:57:42.756Z,79.75
2022-12-26T14:00:19.121Z,79.99
2022-12-26T14:03:17.977Z,79.94
2022-12-26T14:05:44.899Z,79.81
2022-12-26T14:08:29.547Z,79.97
2022-12-26T14:11:31.483Z,79.49
2022-12-26T14:14:28.601Z,79.08
2022-12-26T14:17:02.536Z,79.53
2022-12-26T14:19:55.200Z,79.33
2022-12-26T14:22:33.911Z,79.72
2022-12-26T14:25:18.813Z,80.01
2022-12-26T14:28:02.427Z,80.04
2022-12-26T14:30:40.013Z,80.17
2022-12-26T14:33:24.551Z,80.09
2022-12-26T14:36:25.251Z,80.10
2022-12-26T14:39:21.233Z,80.12
2022-12-26T14:42:26.472Z,80.25
2022-12-26T14:44:58.430Z,80.29
2022-12-26T14:47:44.871Z,80.08
2022-12-26T14:50:55.263Z,80.29
2022-12-26T14:53:24.884Z,80.36
2022-12-26T14:55:58.885Z,80.46
2022-12-26T14:58:25.509Z,80.05
2022-12-26T15:00:53.782Z,80.84
2022-12-26T15:03:36.677Z,80.70
2022-12-26T15:06:21.390Z,80.94
2022-12-26T15:08:53.885Z,80.87
2022-12-26T15:12:10.828Z,81.40
2022-12-26T15:14:46.454Z,81.19
2022-12-26T15:17:22.181Z,81.11
2022-12-26T15:20:01.029Z,80.92
2022-12-26T15:22:49.606Z,80.99
2022-12-26T15:25:28.570Z,81.30
2022-12-26T15:27:58.068Z,80.98
2022-12-26T15:30:42.281Z,81.56
2022-12-26T15:33:25.031Z,81.03
2022-12-26T15:36:36.551Z,81.50
2022-12-26T15:39:24.079Z,81.37
2022-12-26T15:42:04.208Z,81.37
2022-12-26T15:44:56.790Z,81.69
2022-12-26T15:47:33.992Z,81.55
2022-12-26T15:50:30.609Z,81.65
2022-12-26T15:53:00.347Z,82.28
2022-12-26T15:55:48.776Z,82.33
2022-12-26T15:58:36.076Z,82.68
2022-12-26T16:01:04.068Z,82.26
2022-12-26T16:03:57.445Z,82.10
2022-12-26T16:06:42.903Z,81.50
2022-12-26T16:09:37.221Z,81.03
2022-12-26T16:12:19.046Z,81.48
2022-12-26T16:14:46.505Z,81.03
2022-12-26T16:17:16.449Z,81.24
2022-12-26T16:19:49.450Z,81.04
2022-12-26T16:22:46.847Z,81.21
2022-12-26T16:25:16.709Z,80.91
2022-12-26T16:27:45.426Z,81.12
2022-12-26T16:30:20.085Z,81.27
2022-12-26T16:32:47.518Z,81.25
2022-12-26T16:35:19.461Z,81.75
2022-12-26T16:37:47.120Z,81.34
2022-12-26T16:40:52.561Z,82.38
2022-12-26T16:43:19.063Z,82.87
2022-12-26T16:45:49.073Z,82.22
2022-12-26T16:48:20.189Z,83.01
2022-12-26T16:50:57.375Z,83.04
2022-12-26T16:53:36.099Z,83.24
2022-12-26T16:56:24.049Z,82.90
2022-12-26T16:59:17.031Z,83.38
2022-12-26T17:01:56.930Z,83.10
2022-12-26T17:04:26.097Z,83.09
2022-12-26T17:06:57.460Z,83.08
2022-12-26T17:09:27.269Z,83.30
2022-12-26T17:11:56.054Z,83.03
2022-12-26T17:14:30.578Z,83.29
2022-12-26T17:17:01.856Z,83.36
2022-12-26T17:19:29.921Z,83.25
2022-12-26T17:22:21.043Z,83.34
2022-12-26T17:24:50.152Z,83.17
2022-12-26T17:27:24.914Z,82.84
2022-12-26T17:30:18.699Z,83.67
2022-12-26T17:32:47.104Z,83.23
2022-12-26T17:35:20.405Z,83.22
2022-12-26T17:37:51.590Z,83.61
2022-12-26T17:40:27.507Z,83.27
2022-12-26T17:43:04.387Z,83.61
2022-12-26T17:45:31.091Z,83.20
2022-12-26T17:47:58.280Z,82.94
2022-12-26T17:50:30.787Z,83.50
2022-12-26T17:53:16.068Z,83.69
2022-12-26T17:55:42.615Z,83.36
2022-12-26T17:58:14.051Z,83.51
2022-12-26T18:00:41.234Z,83.56
2022-12-26T18:03:08.075Z,83.37
2022-12-26T18:05:38.675Z,84.02
2022-12-26T18:08:06.238Z,84.45
2022-12-26T18:10:35.606Z,83.68
2022-12-26T18:13:03.003Z,84.09
2022-12-26T18:15:31.462Z,83.17
2022-12-26T18:17:58.035Z,84.08
2022-12-26T18:20:30.225Z,83.82
2022-12-26T18:22:56.910Z,83.62
2022-12-26T18:25:25.645Z,84.19
2022-12-26T18:27:52.424Z,84.40
2022-12-26T18:30:24.700Z,83.90
2022-12-26T18:32:56.466Z,83.93
2022-12-26T18:35:23.054Z,84.05
2022-12-26T18:37:52.375Z,84.22
2022-12-26T18:40:37.945Z,84.21
2022-12-26T18:43:24.055Z,83.81
2022-12-26T18:46:29.419Z,83.95
2022-12-26T18:49:00.866Z,83.91
2022-12-26T18:51:30.276Z,83.20
2022-12-26T18:53:56.957Z,83.46
2022-12-26T18:56:23.579Z,84.09
2022-12-26T18:58:57.479Z,84.09
2022-12-26T19:01:25.510Z,83.68
2022-12-26T19:03:53.858Z,83.81
2022-12-26T19:06:24.044Z,83.64
2022-12-26T19:08:50.693Z,83.79
2022-12-26T19:11:17.375Z,83.34
2022-12-26T19:13:44.494Z,83.95
2022-12-26T19:16:12.210Z,83.92
2022-12-26T19:18:39.427Z,84.15
2022-12-26T19:21:32.509Z,83.98
2022-12-26T19:23:59.388Z,83.77
2022-12-26T19:26:25.973Z,83.27
2022-12-26T19:28:54.328Z,84.16
2022-12-26T19:31:22.379Z,83.51
2022-12-26T19:33:49.688Z,83.65
2022-12-26T19:36:16.347Z,83.53
2022-12-26T19:38:42.920Z,83.94
2022-12-26T19:41:12.507Z,84.30
2022-12-26T19:43:39.867Z,83.95
2022-12-26T19:46:11.820Z,84.47
2022-12-26T19:48:39.305Z,83.66
2022-12-26T19:51:11.451Z,83.83
2022-12-26T19:53:39.258Z,84.07
2022-12-26T19:56:11.929Z,84.11
2022-12-26T19:58:39.068Z,84.53
2022-12-26T20:01:11.103Z,83.86
2022-12-26T20:03:39.481Z,84.03
2022-12-26T20:06:13.325Z,85.15
2022-12-26T20:08:40.408Z,82.58
2022-12-26T20:11:09.863Z,81.68
2022-12-26T20:13:37.066Z,82.25
2022-12-26T20:16:05.679Z,82.05
2022-12-26T20:18:34.779Z,83.06
2022-12-26T20:21:01.708Z,82.80
2022-12-26T20:23:28.478Z,82.84
2022-12-26T20:25:57.567Z,83.65
2022-12-26T20:28:24.115Z,83.44
2022-12-26T20:30:59.116Z,84.27
2022-12-26T20:34:06.675Z,83.42
2022-12-26T20:36:45.663Z,83.58
2022-12-26T20:39:15.136Z,83.40
2022-12-26T20:41:41.762Z,83.96
2022-12-26T20:44:08.555Z,83.37
2022-12-26T20:46:36.033Z,83.49
2022-12-26T20:49:04.732Z,83.47
2022-12-26T20:51:37.524Z,84.03
2022-12-26T20:54:08.455Z,83.75
2022-12-26T20:56:36.316Z,83.59
2022-12-26T20:59:03.287Z,83.08
2022-12-26T21:01:30.491Z,82.86
2022-12-26T21:03:57.977Z,82.87
2022-12-26T21:06:28.295Z,83.22
2022-12-26T21:08:56.350Z,82.99
2022-12-26T21:11:25.924Z,83.27
2022-12-26T21:13:55.748Z,83.29
2022-12-26T21:16:25.781Z,83.46
2022-12-26T21:18:53.119Z,83.50
2022-12-26T21:21:23.881Z,83.47
2022-12-26T21:23:56.122Z,83.38
2022-12-26T21:26:23.243Z,83.46
2022-12-26T21:28:54.826Z,83.39
2022-12-26T21:31:21.421Z,83.27
2022-12-26T21:33:48.080Z,83.60
2022-12-26T21:36:14.696Z,83.35
2022-12-26T21:38:42.373Z,83.83
2022-12-26T21:41:10.586Z,83.80
2022-12-26T21:43:37.555Z,83.84
2022-12-26T21:46:14.644Z,83.30
2022-12-26T21:48:47.410Z,83.62
2022-12-26T21:51:15.470Z,83.20
2022-12-26T21:53:44.710Z,83.74
2022-12-26T21:56:13.384Z,83.85
2022-12-26T21:58:59.756Z,83.63
2022-12-26T22:01:27.510Z,83.06
2022-12-26T22:04:21.711Z,83.54
2022-12-26T22:06:51.242Z,83.27
2022-12-26T22:09:18.682Z,83.36
2022-12-26T22:12:04.416Z,82.75
2022-12-26T22:14:31.690Z,82.86
2022-12-26T22:16:58.777Z,82.47
2022-12-26T22:19:28.338Z,81.90
2022-12-26T22:21:55.088Z,82.20
2022-12-26T22:24:22.223Z,81.98
2022-12-26T22:26:49.594Z,81.47
2022-12-26T22:29:16.474Z,81.44
2022-12-26T22:31:43.142Z,81.03
2022-12-26T22:34:12.304Z,80.37
2022-12-26T22:36:40.357Z,80.19
2022-12-26T22:39:07.331Z,80.48
2022-12-26T22:41:34.248Z,80.15
2022-12-26T22:44:01.105Z,80.32
2022-12-26T22:46:27.793Z,80.45
2022-12-26T22:48:54.433Z,79.68
2022-12-26T22:51:23.643Z,80.11
2022-12-26T22:53:54.016Z,80.35
2022-12-26T22:56:20.834Z,80.11
2022-12-26T22:58:47.374Z,80.02
2022-12-26T23:01:16.859Z,80.14
2022-12-26T23:03:43.676Z,80.48
2022-12-26T23:06:25.952Z,80.06
2022-12-26T23:08:56.548Z,79.98
2022-12-26T23:11:30.269Z,79.88
2022-12-26T23:14:01.639Z,80.19
2022-12-26T23:16:37.768Z,79.55
2022-12-26T23:19:57.917Z,80.15
2022-12-26T23:22:24.688Z,80.17
2022-12-26T23:24:51.219Z,80.16
2022-12-26T23:27:36.485Z,79.02
2022-12-26T23:30:19.540Z,77.73
2022-12-26T23:32:52.271Z,78.22
2022-12-26T23:35:20.357Z,78.18
2022-12-26T23:37:46.954Z,77.52
2022-12-26T23:40:15.471Z,76.81
2022-12-26T23:42:42.054Z,77.67
2022-12-26T23:45:10.084Z,78.39
2022-12-26T23:47:38.229Z,77.64
2022-12-26T23:50:06.922Z,77.52
2022-12-26T23:52:33.779Z,78.29
2022-12-26T23:55:00.393Z,79.02
2022-12-26T23:57:27.160Z,79.48
2022-12-26T23:59:53.704Z,79.00
